createdAt,value
2017-03-23T00:00:04.701Z,1000.19
2017-03-23T00:00:45.191Z,1000.14
2017-03-23T00:01:25.635Z,1000.19
2017-03-23T00:02:06.183Z,1000.13
2017-03-23T00:02:46.645Z,1000.17
2017-03-23T00:03:27.134Z,1000.17
2017-03-23T00:04:07.661Z,1000.13
2017-03-23T00:04:48.144Z,1000.15
2017-03-23T00:05:28.671Z,1000.14
2017-03-23T00:06:09.144Z,1000.14
2017-03-23T00:06:49.738Z,1000.16
2017-03-23T00:07:30.218Z,1000.08
2017-03-23T00:08:10.796Z,1000.08
2017-03-23T00:08:51.277Z,1000.07
2017-03-23T00:09:31.800Z,1000.04
2017-03-23T00:10:12.296Z,1000.04
2017-03-23T00:10:52.740Z,1000.09
2017-03-23T00:11:33.257Z,1000.11
2017-03-23T00:12:13.712Z,1000.14
2017-03-23T00:12:54.268Z,1000.14
2017-03-23T00:13:34.736Z,1000.15
2017-03-23T00:14:15.240Z,1000.19
2017-03-23T00:14:55.701Z,1000.19
2017-03-23T00:15:36.234Z,1000.19
2017-03-23T00:16:16.709Z,1000.21
2017-03-23T00:16:57.333Z,1000.18
2017-03-23T00:17:37.736Z,1000.17
2017-03-23T00:18:18.242Z,1000.15
2017-03-23T00:18:58.755Z,1000.14
2017-03-23T00:19:39.215Z,1000.16
2017-03-23T00:20:19.759Z,1000.15
2017-03-23T00:21:00.244Z,1000.18
2017-03-23T00:21:40.767Z,1000.13
2017-03-23T00:22:21.241Z,1000.11
2017-03-23T00:23:01.682Z,1000.18
2017-03-23T00:23:42.192Z,1000.14
2017-03-23T00:24:22.715Z,1000.1
2017-03-23T00:25:03.199Z,1000.17
2017-03-23T00:25:43.692Z,1000.18
2017-03-23T00:26:24.168Z,1000.16
2017-03-23T00:27:04.695Z,1000.18
2017-03-23T00:27:45.209Z,1000.11
2017-03-23T00:28:25.686Z,1000.17
2017-03-23T00:29:06.204Z,1000.14
2017-03-23T00:29:46.669Z,1000.15
2017-03-23T00:30:27.149Z,1000.16
2017-03-23T00:31:07.671Z,1000.14
2017-03-23T00:31:48.168Z,1000.16
2017-03-23T00:32:28.679Z,1000.13
2017-03-23T00:33:09.120Z,1000.19
2017-03-23T00:33:49.657Z,1000.19
2017-03-23T00:34:30.171Z,1000.19
2017-03-23T00:35:10.673Z,1000.15
2017-03-23T00:35:51.137Z,1000.2
2017-03-23T00:36:31.626Z,1000.18
2017-03-23T00:37:12.125Z,1000.17
2017-03-23T00:37:52.612Z,1000.22
2017-03-23T00:38:33.103Z,1000.18
2017-03-23T00:39:13.604Z,1000.2
2017-03-23T00:39:54.111Z,1000.19
2017-03-23T00:40:34.631Z,1000.18
2017-03-23T00:41:15.137Z,1000.17
2017-03-23T00:41:55.649Z,1000.18
2017-03-23T00:42:36.129Z,1000.1
2017-03-23T00:43:16.672Z,1000.14
2017-03-23T00:43:57.170Z,1000.16
2017-03-23T00:44:37.650Z,1000.18
2017-03-23T00:45:18.204Z,1000.15
2017-03-23T00:45:58.683Z,1000.17
2017-03-23T00:46:39.155Z,1000.13
2017-03-23T00:47:19.659Z,1000.11
2017-03-23T00:48:00.157Z,1000.12
2017-03-23T00:48:40.663Z,1000.14
2017-03-23T00:49:21.151Z,1000.09
2017-03-23T00:50:01.649Z,1000.05
2017-03-23T00:50:42.165Z,1000.06
2017-03-23T00:51:22.649Z,1000.08
2017-03-23T00:52:03.140Z,1000.1
2017-03-23T00:52:43.643Z,1000.12
2017-03-23T00:53:24.132Z,1000.11
2017-03-23T00:54:04.638Z,1000.1
2017-03-23T00:54:45.111Z,1000.08
2017-03-23T00:55:25.702Z,1000.09
2017-03-23T00:56:06.166Z,1000.09
2017-03-23T00:56:46.661Z,1000.08
2017-03-23T00:57:27.151Z,1000.03
2017-03-23T00:58:07.645Z,1000.04
2017-03-23T00:58:48.157Z,1000.03
2017-03-23T00:59:28.590Z,1000.07
2017-03-23T01:00:09.133Z,1000.08
2017-03-23T01:00:49.591Z,1000.12
2017-03-23T01:01:30.147Z,1000.06
2017-03-23T01:02:10.606Z,1000.07
2017-03-23T01:02:51.128Z,1000.07
2017-03-23T01:03:31.601Z,1000.08
2017-03-23T01:04:12.087Z,1000.03
2017-03-23T01:04:52.603Z,1000.04
2017-03-23T01:05:33.115Z,1000.01
2017-03-23T01:06:13.636Z,1000.03
2017-03-23T01:06:54.120Z,1000.05
2017-03-23T01:07:34.652Z,1000.02
2017-03-23T01:08:15.144Z,1000.03
2017-03-23T01:08:55.658Z,1000.01
2017-03-23T01:09:36.160Z,999.98
2017-03-23T01:10:16.668Z,1000
2017-03-23T01:10:57.175Z,1000
2017-03-23T01:11:37.728Z,1000.03
2017-03-23T01:12:18.225Z,999.98
2017-03-23T01:12:58.709Z,999.95
2017-03-23T01:13:39.207Z,1000
2017-03-23T01:14:19.730Z,999.97
2017-03-23T01:15:00.210Z,999.99
2017-03-23T01:15:40.718Z,1000
2017-03-23T01:16:21.224Z,1000.02
2017-03-23T01:17:01.703Z,1000.03
2017-03-23T01:17:42.189Z,999.97
2017-03-23T01:18:22.719Z,999.98
2017-03-23T01:19:03.188Z,1000
2017-03-23T01:19:43.686Z,1000.01
2017-03-23T01:20:24.175Z,1000
2017-03-23T01:21:04.668Z,1000.03
2017-03-23T01:21:45.201Z,1000.04
2017-03-23T01:22:25.700Z,1000
2017-03-23T01:23:06.179Z,1000
2017-03-23T01:23:46.689Z,1000.02
2017-03-23T01:24:27.215Z,1000.02
2017-03-23T01:25:07.694Z,1000
2017-03-23T01:25:48.183Z,1000.02
2017-03-23T01:26:28.696Z,999.97
2017-03-23T01:27:09.174Z,1000.01
2017-03-23T01:27:49.657Z,1000.03
2017-03-23T01:28:30.164Z,1000.01
2017-03-23T01:29:10.653Z,1000.04
2017-03-23T01:29:51.153Z,1000
2017-03-23T01:30:31.636Z,1000.03
2017-03-23T01:31:12.144Z,999.99
2017-03-23T01:31:52.625Z,1000.01
2017-03-23T01:32:33.125Z,1000.04
2017-03-23T01:33:13.644Z,1000.01
2017-03-23T01:33:54.145Z,1000.06
2017-03-23T01:34:34.661Z,1000.06
2017-03-23T01:35:15.162Z,1000.03
2017-03-23T01:35:55.658Z,1000
2017-03-23T01:36:36.126Z,1000.03
2017-03-23T01:37:16.632Z,1000.04
2017-03-23T01:37:57.151Z,1000.08
2017-03-23T01:38:37.652Z,1000.07
2017-03-23T01:39:18.202Z,1000.09
2017-03-23T01:39:58.677Z,1000.11
2017-03-23T01:40:39.155Z,1000.08
2017-03-23T01:41:19.645Z,1000.1
2017-03-23T01:42:00.166Z,1000.09
2017-03-23T01:42:40.654Z,1000.1
2017-03-23T01:43:21.136Z,1000.1
2017-03-23T01:44:01.654Z,1000.12
2017-03-23T01:44:42.152Z,1000.16
2017-03-23T01:45:22.743Z,1000.19
2017-03-23T01:46:03.220Z,1000.18
2017-03-23T01:46:43.723Z,1000.16
2017-03-23T01:47:24.220Z,1000.21
2017-03-23T01:48:04.720Z,1000.22
2017-03-23T01:48:45.268Z,1000.22
2017-03-23T01:49:25.688Z,1000.19
2017-03-23T01:50:06.173Z,1000.21
2017-03-23T01:50:46.688Z,1000.22
2017-03-23T01:51:27.159Z,1000.25
2017-03-23T01:52:07.739Z,1000.26
2017-03-23T01:52:48.263Z,1000.21
2017-03-23T01:53:28.758Z,1000.27
2017-03-23T01:54:09.281Z,1000.28
2017-03-23T01:54:49.778Z,1000.24
2017-03-23T01:55:30.264Z,1000.19
2017-03-23T01:56:10.762Z,1000.23
2017-03-23T01:56:51.252Z,1000.22
2017-03-23T01:57:31.751Z,1000.24
2017-03-23T01:58:12.296Z,1000.26
2017-03-23T01:58:52.779Z,1000.24
2017-03-23T01:59:33.278Z,1000.23
2017-03-23T02:00:13.762Z,1000.21
2017-03-23T02:00:54.224Z,1000.23
2017-03-23T02:01:34.744Z,1000.17
2017-03-23T02:02:15.238Z,1000.19
2017-03-23T02:02:55.724Z,1000.21
2017-03-23T02:03:36.244Z,1000.21
2017-03-23T02:04:16.772Z,1000.25
2017-03-23T02:04:57.263Z,1000.24
2017-03-23T02:05:37.744Z,1000.25
2017-03-23T02:06:18.258Z,1000.23
2017-03-23T02:06:58.705Z,1000.24
2017-03-23T02:07:39.203Z,1000.25
2017-03-23T02:08:19.714Z,1000.26
2017-03-23T02:09:00.255Z,1000.27
2017-03-23T02:09:40.700Z,1000.22
2017-03-23T02:10:21.186Z,1000.24
2017-03-23T02:11:01.703Z,1000.18
2017-03-23T02:11:42.220Z,1000.14
2017-03-23T02:12:22.747Z,1000.15
2017-03-23T02:13:03.249Z,1000.16
2017-03-23T02:13:43.723Z,1000.18
2017-03-23T02:14:24.239Z,1000.12
2017-03-23T02:15:04.722Z,1000.15
2017-03-23T02:15:45.243Z,1000.15
2017-03-23T02:16:25.730Z,1000.13
2017-03-23T02:17:06.246Z,1000.13
2017-03-23T02:17:46.748Z,1000.13
2017-03-23T02:18:27.257Z,1000.1
2017-03-23T02:19:07.795Z,1000.15
2017-03-23T02:19:48.247Z,1000.16
2017-03-23T02:20:28.753Z,1000.15
2017-03-23T02:21:09.258Z,1000.11
2017-03-23T02:21:49.725Z,1000.13
2017-03-23T02:22:30.230Z,1000.15
2017-03-23T02:23:10.739Z,1000.15
2017-03-23T02:23:51.246Z,1000.07
2017-03-23T02:24:31.745Z,1000.06
2017-03-23T02:25:12.331Z,1000.09
2017-03-23T02:25:52.785Z,1000.06
2017-03-23T02:26:33.276Z,1000.09
2017-03-23T02:27:13.807Z,1000.12
2017-03-23T02:27:54.277Z,1000.05
2017-03-23T02:28:34.807Z,1000.1
2017-03-23T02:29:15.300Z,1000.09
2017-03-23T02:29:55.806Z,1000.1
2017-03-23T02:30:36.245Z,1000.09
2017-03-23T02:31:16.747Z,1000.11
2017-03-23T02:31:57.219Z,1000.07
2017-03-23T02:32:37.732Z,1000.13
2017-03-23T02:33:18.205Z,1000.11
2017-03-23T02:33:58.708Z,1000.13
2017-03-23T02:34:39.222Z,1000.11
2017-03-23T02:35:19.719Z,1000.14
2017-03-23T02:36:00.214Z,1000.1
2017-03-23T02:36:40.725Z,1000.09
2017-03-23T02:37:21.190Z,1000.09
2017-03-23T02:38:01.689Z,1000.11
2017-03-23T02:38:42.194Z,1000.09
2017-03-23T02:39:22.676Z,1000.1
2017-03-23T02:40:03.179Z,1000.1
2017-03-23T02:40:43.708Z,1000.08
2017-03-23T02:41:24.179Z,1000.09
2017-03-23T02:42:04.651Z,1000.07
2017-03-23T02:42:45.133Z,1000.06
2017-03-23T02:43:25.640Z,1000.08
2017-03-23T02:44:06.157Z,1000.06
2017-03-23T02:44:46.632Z,1000.08
2017-03-23T02:45:27.166Z,1000.06
2017-03-23T02:46:07.633Z,1000.09
2017-03-23T02:46:48.120Z,1000.06
2017-03-23T02:47:28.625Z,1000.06
2017-03-23T02:48:09.096Z,1000.05
2017-03-23T02:48:49.598Z,1000.08
2017-03-23T02:51:18.069Z,999.99
2017-03-23T02:51:58.555Z,999.99
2017-03-23T02:52:39.048Z,999.97
2017-03-23T02:53:19.550Z,999.99
2017-03-23T02:54:00.028Z,1000
2017-03-23T02:54:40.509Z,999.98
2017-03-23T02:55:21.041Z,999.99
2017-03-23T02:56:01.520Z,999.98
2017-03-23T02:56:42.029Z,999.97
2017-03-23T02:57:22.544Z,999.95
2017-03-23T02:58:03.017Z,999.97
2017-03-23T02:58:43.515Z,999.95
2017-03-23T02:59:24.000Z,999.95
2017-03-23T03:00:04.494Z,999.94
2017-03-23T03:00:44.984Z,999.95
2017-03-23T03:01:25.469Z,999.89
2017-03-23T03:02:05.973Z,999.88
2017-03-23T03:02:46.467Z,999.89
2017-03-23T03:03:26.947Z,999.93
2017-03-23T03:04:07.458Z,999.89
2017-03-23T03:04:47.982Z,999.92
2017-03-23T03:05:28.469Z,999.9
2017-03-23T03:06:08.988Z,999.89
2017-03-23T03:06:49.479Z,999.89
2017-03-23T03:07:29.947Z,999.85
2017-03-23T03:08:10.459Z,999.86
2017-03-23T03:08:50.970Z,999.84
2017-03-23T03:09:31.498Z,999.82
2017-03-23T03:10:12.023Z,999.81
2017-03-23T03:10:52.501Z,999.81
2017-03-23T03:11:32.997Z,999.81
2017-03-23T03:12:13.496Z,999.8
2017-03-23T03:12:53.991Z,999.8
2017-03-23T03:13:34.491Z,999.79
2017-03-23T03:14:14.973Z,999.84
2017-03-23T03:14:55.482Z,999.76
2017-03-23T03:15:35.991Z,999.77
2017-03-23T03:16:16.518Z,999.78
2017-03-23T03:16:57.020Z,999.76
2017-03-23T03:17:37.496Z,999.78
2017-03-23T03:18:18.024Z,999.79
2017-03-23T03:18:58.489Z,999.72
2017-03-23T03:19:38.990Z,999.71
2017-03-23T03:20:19.477Z,999.67
2017-03-23T03:20:59.960Z,999.74
2017-03-23T03:21:40.453Z,999.73
2017-03-23T03:22:20.951Z,999.71
2017-03-23T03:23:01.453Z,999.72
2017-03-23T03:23:41.960Z,999.72
2017-03-23T03:24:22.488Z,999.78
2017-03-23T03:25:02.954Z,999.77
2017-03-23T03:25:43.440Z,999.76
2017-03-23T03:26:23.954Z,999.8
2017-03-23T03:27:04.486Z,999.79
2017-03-23T03:27:44.940Z,999.78
2017-03-23T03:28:25.437Z,999.77
2017-03-23T03:29:05.952Z,999.76
2017-03-23T03:29:46.484Z,999.8
2017-03-23T03:30:26.942Z,999.75
2017-03-23T03:31:07.412Z,999.78
2017-03-23T03:31:47.932Z,999.72
2017-03-23T03:32:28.434Z,999.78
2017-03-23T03:33:08.970Z,999.79
2017-03-23T03:33:49.471Z,999.74
2017-03-23T03:34:29.959Z,999.78
2017-03-23T03:35:10.467Z,999.74
2017-03-23T03:35:50.987Z,999.75
2017-03-23T03:36:31.480Z,999.72
2017-03-23T03:37:12.021Z,999.72
2017-03-23T03:37:52.509Z,999.76
2017-03-23T03:38:32.989Z,999.71
2017-03-23T03:39:13.553Z,999.73
2017-03-23T03:39:54.032Z,999.75
2017-03-23T03:40:34.516Z,999.72
2017-03-23T03:41:15.017Z,999.69
2017-03-23T03:41:55.474Z,999.72
2017-03-23T03:42:36.010Z,999.71
2017-03-23T03:43:16.474Z,999.77
2017-03-23T03:43:56.965Z,999.81
2017-03-23T03:44:37.504Z,999.78
2017-03-23T03:45:18.006Z,999.84
2017-03-23T03:45:58.630Z,999.85
2017-03-23T03:46:39.091Z,999.88
2017-03-23T03:47:19.615Z,999.83
2017-03-23T03:48:00.111Z,999.83
2017-03-23T03:48:40.613Z,999.87
2017-03-23T03:49:21.114Z,999.85
2017-03-23T03:50:01.569Z,999.89
2017-03-23T03:50:42.060Z,999.85
2017-03-23T03:51:22.557Z,999.86
2017-03-23T03:52:03.103Z,999.89
2017-03-23T03:52:43.574Z,999.88
2017-03-23T03:53:24.119Z,999.89
2017-03-23T03:54:04.576Z,999.86
2017-03-23T03:54:45.119Z,999.86
2017-03-23T03:55:25.572Z,999.89
2017-03-23T03:56:06.069Z,999.87
2017-03-23T03:56:46.574Z,999.84
2017-03-23T03:57:27.055Z,999.85
2017-03-23T03:58:07.553Z,999.88
2017-03-23T03:58:48.045Z,999.84
2017-03-23T03:59:28.559Z,999.86
2017-03-23T04:00:09.039Z,999.86
2017-03-23T04:00:49.554Z,999.84
2017-03-23T04:01:30.049Z,999.8
2017-03-23T04:02:10.558Z,999.87
2017-03-23T04:02:51.092Z,999.85
2017-03-23T04:03:31.518Z,999.87
2017-03-23T04:04:12.038Z,999.8
2017-03-23T04:04:52.536Z,999.84
2017-03-23T04:05:33.019Z,999.83
2017-03-23T04:06:13.517Z,999.85
2017-03-23T04:06:54.012Z,999.9
2017-03-23T04:07:34.490Z,999.83
2017-03-23T04:08:15.012Z,999.86
2017-03-23T04:08:55.479Z,999.87
2017-03-23T04:09:35.945Z,999.9
2017-03-23T04:10:16.461Z,999.87
2017-03-23T04:10:56.939Z,999.87
2017-03-23T04:11:37.447Z,999.87
2017-03-23T04:14:05.965Z,999.84
2017-03-23T04:14:46.449Z,999.86
2017-03-23T04:15:26.969Z,999.85
2017-03-23T04:16:07.435Z,999.84
2017-03-23T04:16:47.961Z,999.79
2017-03-23T04:17:28.450Z,999.81
2017-03-23T04:18:08.937Z,999.82
2017-03-23T04:18:49.470Z,999.81
2017-03-23T04:19:29.907Z,999.86
2017-03-23T04:20:10.428Z,999.91
2017-03-23T04:20:50.885Z,999.95
2017-03-23T04:21:31.418Z,999.99
2017-03-23T04:22:11.897Z,1000.01
2017-03-23T04:22:52.380Z,999.98
2017-03-23T04:23:32.875Z,999.99
2017-03-23T04:24:13.351Z,999.97
2017-03-23T04:24:53.855Z,1000.02
2017-03-23T04:25:34.324Z,999.93
2017-03-23T04:26:14.805Z,1000
2017-03-23T04:26:55.292Z,999.98
2017-03-23T04:27:35.801Z,999.98
2017-03-23T04:28:16.269Z,999.99
2017-03-23T04:28:56.765Z,1000
2017-03-23T04:29:37.247Z,999.99
2017-03-23T04:30:17.732Z,1000
2017-03-23T04:30:58.222Z,1000.07
2017-03-23T04:31:38.735Z,1000.08
2017-03-23T04:32:19.200Z,1000.07
2017-03-23T04:32:59.674Z,1000.1
2017-03-23T04:33:40.169Z,1000.13
2017-03-23T04:34:20.697Z,1000.13
2017-03-23T04:35:01.285Z,1000.15
2017-03-23T04:35:41.756Z,1000.15
2017-03-23T04:36:22.283Z,1000.16
2017-03-23T04:37:02.773Z,1000.16
2017-03-23T04:37:43.265Z,1000.16
2017-03-23T04:38:23.794Z,1000.18
2017-03-23T04:39:04.255Z,1000.18
2017-03-23T04:39:44.752Z,1000.23
2017-03-23T04:40:25.328Z,1000.21
2017-03-23T04:41:05.769Z,1000.21
2017-03-23T04:41:46.272Z,1000.23
2017-03-23T04:42:26.802Z,1000.27
2017-03-23T04:43:07.286Z,1000.26
2017-03-23T04:43:47.762Z,1000.32
2017-03-23T04:44:28.255Z,1000.32
2017-03-23T04:45:08.746Z,1000.31
2017-03-23T04:45:49.240Z,1000.29
2017-03-23T04:46:29.745Z,1000.31
2017-03-23T04:47:10.247Z,1000.32
2017-03-23T04:47:50.744Z,1000.26
2017-03-23T04:48:31.256Z,1000.25
2017-03-23T04:49:11.727Z,1000.25
2017-03-23T04:49:52.217Z,1000.24
2017-03-23T04:50:32.731Z,1000.2
2017-03-23T04:51:13.240Z,1000.23
2017-03-23T04:51:53.732Z,1000.24
2017-03-23T04:52:34.230Z,1000.26
2017-03-23T04:53:14.711Z,1000.28
2017-03-23T04:53:55.217Z,1000.29
2017-03-23T04:54:35.720Z,1000.28
2017-03-23T04:55:16.246Z,1000.25
2017-03-23T04:55:56.727Z,1000.24
2017-03-23T04:56:37.165Z,1000.18
2017-03-23T04:57:17.667Z,1000.23
2017-03-23T04:57:58.168Z,1000.26
2017-03-23T04:58:38.693Z,1000.16
2017-03-23T04:59:19.145Z,1000.24
2017-03-23T04:59:59.665Z,1000.21
2017-03-23T05:00:40.156Z,1000.18
2017-03-23T05:01:20.644Z,1000.23
2017-03-23T05:02:01.122Z,1000.15
2017-03-23T05:02:41.640Z,1000.18
2017-03-23T05:03:22.164Z,1000.15
2017-03-23T05:04:02.711Z,1000.2
2017-03-23T05:04:43.243Z,1000.2
2017-03-23T05:05:23.722Z,1000.19
2017-03-23T05:06:04.192Z,1000.16
2017-03-23T05:06:44.693Z,1000.17
2017-03-23T05:07:25.285Z,1000.21
2017-03-23T05:08:05.785Z,1000.17
2017-03-23T05:08:46.308Z,1000.21
2017-03-23T05:09:26.778Z,1000.23
2017-03-23T05:10:07.272Z,1000.22
2017-03-23T05:10:47.743Z,1000.27
2017-03-23T05:11:28.289Z,1000.22
2017-03-23T05:12:08.733Z,1000.24
2017-03-23T05:12:49.246Z,1000.22
2017-03-23T05:13:29.747Z,1000.15
2017-03-23T05:14:10.237Z,1000.2
2017-03-23T05:14:50.726Z,1000.21
2017-03-23T05:15:31.254Z,1000.16
2017-03-23T05:16:11.737Z,1000.18
2017-03-23T05:16:52.221Z,1000.18
2017-03-23T05:17:32.720Z,1000.27
2017-03-23T05:18:13.195Z,1000.2
2017-03-23T05:18:53.678Z,1000.14
2017-03-23T05:19:34.195Z,1000.21
2017-03-23T05:20:14.737Z,1000.2
2017-03-23T05:20:55.304Z,1000.18
2017-03-23T05:21:35.777Z,1000.22
2017-03-23T05:22:16.282Z,1000.21
2017-03-23T05:22:56.806Z,1000.17
2017-03-23T05:23:37.258Z,1000.24
2017-03-23T05:24:17.770Z,1000.22
2017-03-23T05:24:58.275Z,1000.23
2017-03-23T05:25:38.775Z,1000.22
2017-03-23T05:26:19.347Z,1000.25
2017-03-23T05:26:59.845Z,1000.18
2017-03-23T05:27:40.339Z,1000.19
2017-03-23T05:28:20.858Z,1000.15
2017-03-23T05:29:01.335Z,1000.19
2017-03-23T05:29:41.831Z,1000.13
2017-03-23T05:30:22.339Z,1000.15
2017-03-23T05:31:02.850Z,1000.18
2017-03-23T05:31:43.377Z,1000.18
2017-03-23T05:32:23.911Z,1000.15
2017-03-23T05:33:04.342Z,1000.22
2017-03-23T05:33:45.027Z,1000.14
2017-03-23T05:34:25.509Z,1000.21
2017-03-23T05:35:05.985Z,1000.21
2017-03-23T05:35:46.494Z,1000.2
2017-03-23T05:36:26.982Z,1000.21
2017-03-23T05:37:07.452Z,1000.2
2017-03-23T05:37:47.937Z,1000.17
2017-03-23T05:38:28.437Z,1000.19
2017-03-23T05:39:08.926Z,1000.27
2017-03-23T05:39:49.444Z,1000.23
2017-03-23T05:40:29.946Z,1000.22
2017-03-23T05:41:10.438Z,1000.22
2017-03-23T05:41:50.931Z,1000.25
2017-03-23T05:42:31.427Z,1000.26
2017-03-23T05:43:11.950Z,1000.25
2017-03-23T05:43:52.429Z,1000.25
2017-03-23T05:44:33.016Z,1000.22
2017-03-23T05:45:13.569Z,1000.25
2017-03-23T05:45:54.124Z,1000.27
2017-03-23T05:46:34.577Z,1000.26
2017-03-23T05:47:15.049Z,1000.26
2017-03-23T05:47:55.548Z,1000.29
2017-03-23T05:48:36.020Z,1000.34
2017-03-23T05:49:16.512Z,1000.36
2017-03-23T05:49:56.998Z,1000.3
2017-03-23T05:50:37.503Z,1000.35
2017-03-23T05:51:18.022Z,1000.34
2017-03-23T05:51:58.480Z,1000.36
2017-03-23T05:52:38.966Z,1000.39
2017-03-23T05:53:19.505Z,1000.41
2017-03-23T05:54:00.013Z,1000.44
2017-03-23T05:54:40.520Z,1000.42
2017-03-23T05:55:21.016Z,1000.42
2017-03-23T05:56:01.497Z,1000.4
2017-03-23T05:56:42.009Z,1000.41
2017-03-23T05:57:22.515Z,1000.41
2017-03-23T05:58:03.011Z,1000.36
2017-03-23T05:58:43.521Z,1000.34
2017-03-23T05:59:24.008Z,1000.34
2017-03-23T06:00:04.491Z,1000.38
2017-03-23T06:00:44.976Z,1000.38
2017-03-23T06:01:25.486Z,1000.38
2017-03-23T06:02:05.975Z,1000.45
2017-03-23T06:02:46.496Z,1000.45
2017-03-23T06:03:26.987Z,1000.46
2017-03-23T06:04:07.507Z,1000.49
2017-03-23T06:04:47.987Z,1000.5
2017-03-23T06:05:28.494Z,1000.51
2017-03-23T06:06:08.976Z,1000.48
2017-03-23T06:06:49.472Z,1000.48
2017-03-23T06:07:29.997Z,1000.49
2017-03-23T06:08:10.507Z,1000.5
2017-03-23T06:08:51.017Z,1000.45
2017-03-23T06:09:31.501Z,1000.46
2017-03-23T06:11:29.704Z,1000.43
2017-03-23T06:12:10.240Z,1000.48
2017-03-23T06:12:50.717Z,1000.46
2017-03-23T06:13:31.216Z,1000.48
2017-03-23T06:14:11.814Z,1000.5
2017-03-23T06:14:52.405Z,1000.52
2017-03-23T06:15:32.917Z,1000.52
2017-03-23T06:16:13.510Z,1000.55
2017-03-23T06:16:53.907Z,1000.54
2017-03-23T06:17:34.390Z,1000.61
2017-03-23T06:18:14.875Z,1000.6
2017-03-23T06:18:55.367Z,1000.63
2017-03-23T06:19:35.853Z,1000.64
2017-03-23T06:20:16.400Z,1000.68
2017-03-23T06:20:56.944Z,1000.69
2017-03-23T06:21:37.375Z,1000.7
2017-03-23T06:22:17.907Z,1000.74
2017-03-23T06:22:58.392Z,1000.71
2017-03-23T06:23:38.817Z,1000.72
2017-03-23T06:24:19.328Z,1000.68
2017-03-23T06:24:59.848Z,1000.7
2017-03-23T06:25:40.374Z,1000.66
2017-03-23T06:26:20.840Z,1000.67
2017-03-23T06:27:01.363Z,1000.66
2017-03-23T06:27:41.859Z,1000.7
2017-03-23T06:28:22.371Z,1000.73
2017-03-23T06:29:02.892Z,1000.7
2017-03-23T06:29:43.414Z,1000.77
2017-03-23T06:30:23.936Z,1000.78
2017-03-23T06:31:04.392Z,1000.75
2017-03-23T06:31:44.882Z,1000.84
2017-03-23T06:32:25.384Z,1000.85
2017-03-23T06:33:05.889Z,1000.84
2017-03-23T06:33:46.482Z,1000.85
2017-03-23T06:34:26.922Z,1000.87
2017-03-23T06:35:07.418Z,1000.9
2017-03-23T06:35:47.915Z,1000.87
2017-03-23T06:36:28.453Z,1000.89
2017-03-23T06:37:08.949Z,1000.89
2017-03-23T06:37:49.438Z,1000.92
2017-03-23T06:38:29.957Z,1000.98
2017-03-23T06:39:10.463Z,1000.96
2017-03-23T06:39:50.938Z,1000.94
2017-03-23T06:40:31.437Z,1000.96
2017-03-23T06:41:11.932Z,1000.88
2017-03-23T06:41:52.432Z,1000.92
2017-03-23T06:42:32.898Z,1000.98
2017-03-23T06:43:13.397Z,1000.96
2017-03-23T06:43:53.872Z,1000.98
2017-03-23T06:44:34.383Z,1001.01
2017-03-23T06:45:14.894Z,1001.01
2017-03-23T06:45:55.400Z,1000.99
2017-03-23T06:46:35.911Z,1000.98
2017-03-23T06:47:16.378Z,1000.97
2017-03-23T06:47:56.906Z,1000.98
2017-03-23T06:48:37.423Z,1000.96
2017-03-23T06:49:17.907Z,1000.92
2017-03-23T06:49:58.408Z,1000.92
2017-03-23T06:50:38.907Z,1000.96
2017-03-23T06:51:19.432Z,1000.95
2017-03-23T06:51:59.915Z,1000.92
2017-03-23T06:52:40.429Z,1000.89
2017-03-23T06:53:20.934Z,1000.92
2017-03-23T06:54:01.454Z,1000.93
2017-03-23T06:54:41.896Z,1000.97
2017-03-23T06:55:22.400Z,1000.96
2017-03-23T06:56:02.922Z,1001
2017-03-23T06:56:43.414Z,1000.97
2017-03-23T06:57:23.904Z,1000.95
2017-03-23T06:58:04.421Z,1000.97
2017-03-23T06:58:45.079Z,1000.99
2017-03-23T06:59:25.608Z,1001.03
2017-03-23T07:00:06.083Z,1001.03
2017-03-23T07:00:46.603Z,1001.05
2017-03-23T07:01:27.090Z,1001.08
2017-03-23T07:02:07.589Z,1001.07
2017-03-23T07:02:48.086Z,1001.06
2017-03-23T07:03:28.591Z,1001.09
2017-03-23T07:04:09.067Z,1001.05
2017-03-23T07:04:49.589Z,1001.02
2017-03-23T07:05:30.107Z,1000.99
2017-03-23T07:06:10.602Z,1001.05
2017-03-23T07:06:51.100Z,1001.06
2017-03-23T07:07:31.582Z,1001.02
2017-03-23T07:08:12.160Z,1001.05
2017-03-23T07:08:52.745Z,1001.03
2017-03-23T07:09:33.211Z,1001.04
2017-03-23T07:10:13.680Z,1001.03
2017-03-23T07:10:54.202Z,1001.08
2017-03-23T07:11:34.775Z,1001.09
2017-03-23T07:12:15.256Z,1001.06
2017-03-23T07:12:55.738Z,1001.03
2017-03-23T07:13:36.256Z,1001.05
2017-03-23T07:14:16.784Z,1001.09
2017-03-23T07:14:57.263Z,1001.05
2017-03-23T07:15:37.803Z,1001.08
2017-03-23T07:16:18.268Z,1001.04
2017-03-23T07:16:58.725Z,1001.03
2017-03-23T07:17:39.226Z,1001.07
2017-03-23T07:18:19.725Z,1001
2017-03-23T07:19:00.208Z,1001
2017-03-23T07:19:40.704Z,1000.97
2017-03-23T07:20:21.184Z,1000.94
2017-03-23T07:21:01.729Z,1001.01
2017-03-23T07:21:42.199Z,1000.98
2017-03-23T07:22:22.700Z,1000.97
2017-03-23T07:23:03.203Z,1001.06
2017-03-23T07:23:43.727Z,1001.02
2017-03-23T07:24:24.259Z,1001.03
2017-03-23T07:25:04.752Z,1001
2017-03-23T07:25:45.260Z,1001.07
2017-03-23T07:27:43.553Z,1001.03
2017-03-23T07:28:24.028Z,1001.07
2017-03-23T07:29:04.544Z,1001.05
2017-03-23T07:29:45.028Z,1001.04
2017-03-23T07:30:25.467Z,1001.05
2017-03-23T07:31:05.976Z,1001.07
2017-03-23T07:31:46.470Z,1001
2017-03-23T07:32:26.977Z,1000.98
2017-03-23T07:33:07.462Z,1000.95
2017-03-23T07:33:47.952Z,1000.98
2017-03-23T07:34:28.446Z,1001.01
2017-03-23T07:35:08.933Z,1000.99
2017-03-23T07:35:49.447Z,1000.99
2017-03-23T07:36:29.931Z,1000.98
2017-03-23T07:37:10.447Z,1001.01
2017-03-23T07:37:50.990Z,1001.04
2017-03-23T07:38:31.446Z,1001.03
2017-03-23T07:39:11.997Z,1001.03
2017-03-23T07:39:52.509Z,1001.06
2017-03-23T07:40:33.007Z,1000.99
2017-03-23T07:41:13.517Z,1001.04
2017-03-23T07:41:54.040Z,1001
2017-03-23T07:42:34.521Z,1001.04
2017-03-23T07:43:15.023Z,1001.12
2017-03-23T07:43:55.511Z,1001.13
2017-03-23T07:44:35.997Z,1001.11
2017-03-23T07:45:16.484Z,1001.07
2017-03-23T07:45:56.999Z,1001.13
2017-03-23T07:46:37.482Z,1001.15
2017-03-23T07:47:17.944Z,1001.16
2017-03-23T07:47:58.423Z,1001.13
2017-03-23T07:48:38.925Z,1001.09
2017-03-23T07:49:19.415Z,1001.12
2017-03-23T07:49:59.950Z,1001.12
2017-03-23T07:50:40.450Z,1001.11
2017-03-23T07:51:21.016Z,1001.11
2017-03-23T07:52:01.505Z,1001.1
2017-03-23T07:52:41.983Z,1001.06
2017-03-23T07:53:22.467Z,1001.1
2017-03-23T07:54:02.954Z,1001.09
2017-03-23T07:54:43.449Z,1001.07
2017-03-23T07:55:23.947Z,1001.1
2017-03-23T07:56:04.462Z,1001.11
2017-03-23T07:56:44.949Z,1001.08
2017-03-23T07:57:25.450Z,1001.08
2017-03-23T07:58:06.069Z,1001.03
2017-03-23T07:58:46.568Z,1001.03
2017-03-23T07:59:27.074Z,1001.04
2017-03-23T08:00:07.570Z,1001.05
2017-03-23T08:00:48.085Z,1001.01
2017-03-23T08:01:28.598Z,1000.99
2017-03-23T08:02:09.074Z,1000.99
2017-03-23T08:02:49.608Z,1001.03
2017-03-23T08:03:30.101Z,1000.97
2017-03-23T08:04:10.639Z,1001.01
2017-03-23T08:04:51.135Z,1001.03
2017-03-23T08:05:31.621Z,1000.98
2017-03-23T08:06:12.122Z,1001.04
2017-03-23T08:06:52.686Z,1001.02
2017-03-23T08:07:33.146Z,1001
2017-03-23T08:08:13.644Z,1001.05
2017-03-23T08:08:54.227Z,1001.06
2017-03-23T08:09:34.735Z,1001.08
2017-03-23T08:10:15.332Z,1001.11
2017-03-23T08:10:56.092Z,1001.08
2017-03-23T08:11:36.573Z,1001.13
2017-03-23T08:12:17.094Z,1001.14
2017-03-23T08:12:57.589Z,1001.16
2017-03-23T08:13:38.081Z,1001.14
2017-03-23T08:14:18.601Z,1001.12
2017-03-23T08:14:59.075Z,1001.11
2017-03-23T08:15:39.571Z,1001.13
2017-03-23T08:16:20.055Z,1001.15
2017-03-23T08:17:00.621Z,1001.14
2017-03-23T08:17:41.088Z,1001.11
2017-03-23T08:18:21.604Z,1001.14
2017-03-23T08:19:02.110Z,1001.13
2017-03-23T08:19:42.643Z,1001.12
2017-03-23T08:20:23.110Z,1001.13
2017-03-23T08:21:03.637Z,1001.15